createdAt,value
2022-12-18T00:01:32.523Z,-2.25
2022-12-18T00:05:25.376Z,-2.37
2022-12-18T00:09:18.743Z,-2.36
2022-12-18T00:13:11.830Z,-2.36
2022-12-18T00:17:04.390Z,-2.33
2022-12-18T00:21:01.721Z,-2.26
2022-12-18T00:24:54.131Z,-2.32
2022-12-18T00:28:47.572Z,-2.32
2022-12-18T00:32:40.146Z,-2.41
2022-12-18T00:36:35.162Z,-2.39
2022-12-18T00:40:27.785Z,-2.43
2022-12-18T00:44:20.778Z,-2.44
2022-12-18T00:48:13.323Z,-2.56
2022-12-18T00:52:06.054Z,-2.56
2022-12-18T00:55:58.505Z,-2.61
2022-12-18T00:59:50.947Z,-2.54
2022-12-18T01:03:43.849Z,-2.56
2022-12-18T01:07:36.683Z,-2.57
2022-12-18T01:11:29.264Z,-2.51
2022-12-18T01:15:21.985Z,-2.41
2022-12-18T01:19:14.857Z,-2.43
2022-12-18T01:23:07.500Z,-2.50
2022-12-18T01:27:00.186Z,-2.50
2022-12-18T01:30:52.725Z,-2.56
2022-12-18T01:34:45.324Z,-2.57
2022-12-18T01:38:37.869Z,-2.57
2022-12-18T01:42:30.495Z,-2.56
2022-12-18T01:46:27.686Z,-2.65
2022-12-18T01:50:25.749Z,-2.67
2022-12-18T01:54:18.529Z,-2.60
2022-12-18T01:58:11.527Z,-2.67
2022-12-18T02:02:05.017Z,-2.85
2022-12-18T02:06:08.398Z,-2.88
2022-12-18T02:10:03.852Z,-2.79
2022-12-18T02:14:02.792Z,-2.69
2022-12-18T02:18:07.594Z,-2.81
2022-12-18T02:22:06.435Z,-2.86
2022-12-18T02:26:12.571Z,-2.88
2022-12-18T02:30:07.387Z,-2.93
2022-12-18T02:34:04.210Z,-2.88
2022-12-18T02:37:57.672Z,-2.77
2022-12-18T02:41:51.545Z,-2.78
2022-12-18T02:45:49.672Z,-2.79
2022-12-18T02:49:45.491Z,-2.79
2022-12-18T02:53:45.160Z,-2.82
2022-12-18T02:57:55.069Z,-2.92
2022-12-18T03:02:04.003Z,-2.92
2022-12-18T03:06:10.879Z,-2.99
2022-12-18T03:10:04.645Z,-3.02
2022-12-18T03:13:59.148Z,-2.95
2022-12-18T03:18:10.136Z,-2.86
2022-12-18T03:22:07.241Z,-2.85
2022-12-18T03:26:07.711Z,-2.89
2022-12-18T03:30:11.490Z,-2.95
2022-12-18T03:34:10.206Z,-2.96
2022-12-18T03:38:02.866Z,-2.93
2022-12-18T03:42:07.631Z,-2.97
2022-12-18T03:46:13.493Z,-2.93
2022-12-18T03:50:38.860Z,-2.92
2022-12-18T03:54:32.346Z,-2.93
2022-12-18T03:58:27.331Z,-3.05
2022-12-18T04:02:21.244Z,-3.10
2022-12-18T04:06:15.936Z,-3.20
2022-12-18T04:10:14.076Z,-3.26
2022-12-18T04:14:07.486Z,-3.20
2022-12-18T04:18:00.324Z,-3.21
2022-12-18T04:21:52.982Z,-3.24
2022-12-18T04:25:46.412Z,-3.21
2022-12-18T04:29:38.896Z,-3.51
2022-12-18T04:33:31.352Z,-3.53
2022-12-18T04:37:24.009Z,-3.50
2022-12-18T04:41:16.909Z,-3.48
2022-12-18T04:45:10.055Z,-3.36
2022-12-18T04:49:02.775Z,-3.34
2022-12-18T04:52:55.565Z,-3.30
2022-12-18T04:56:48.244Z,-3.29
2022-12-18T05:00:40.878Z,-3.34
2022-12-18T05:04:33.545Z,-3.43
2022-12-18T05:08:26.064Z,-3.36
2022-12-18T05:12:18.850Z,-3.29
2022-12-18T05:16:12.406Z,-3.37
2022-12-18T05:20:05.513Z,-3.40
2022-12-18T05:23:58.738Z,-3.34
2022-12-18T05:27:51.095Z,-3.32
2022-12-18T05:31:43.753Z,-3.36
2022-12-18T05:35:37.034Z,-3.37
2022-12-18T05:39:29.784Z,-3.44
2022-12-18T05:43:23.686Z,-3.43
2022-12-18T05:47:16.204Z,-3.47
2022-12-18T05:51:11.976Z,-3.54
2022-12-18T05:55:06.067Z,-3.68
2022-12-18T05:58:58.667Z,-3.75
2022-12-18T06:02:51.315Z,-3.70
2022-12-18T06:06:44.080Z,-3.83
2022-12-18T06:10:37.491Z,-3.71
2022-12-18T06:14:30.136Z,-3.67
2022-12-18T06:18:22.700Z,-3.65
2022-12-18T06:22:15.378Z,-3.58
2022-12-18T06:26:10.789Z,-3.51
2022-12-18T06:30:05.080Z,-3.57
2022-12-18T06:33:57.553Z,-3.74
2022-12-18T06:37:50.339Z,-3.78
2022-12-18T06:41:43.557Z,-3.70
2022-12-18T06:45:36.133Z,-3.67
2022-12-18T06:49:30.655Z,-3.89
2022-12-18T06:53:23.758Z,-3.77
2022-12-18T06:57:16.599Z,-3.99
2022-12-18T07:01:11.679Z,-3.89
2022-12-18T07:05:10.686Z,-3.72
2022-12-18T07:09:04.038Z,-3.71
2022-12-18T07:12:57.257Z,-3.60
2022-12-18T07:16:49.953Z,-3.57
2022-12-18T07:20:42.634Z,-3.58
2022-12-18T07:24:36.553Z,-3.44
2022-12-18T07:28:29.154Z,-3.43
2022-12-18T07:32:21.885Z,-3.34
2022-12-18T07:36:15.718Z,-3.29
2022-12-18T07:40:09.384Z,-3.13
2022-12-18T07:44:01.978Z,-3.20
2022-12-18T07:47:54.864Z,-3.15
2022-12-18T07:51:50.260Z,-3.19
2022-12-18T07:56:17.759Z,-3.05
2022-12-18T07:59:56.967Z,-3.03
2022-12-18T08:03:50.199Z,-2.99
2022-12-18T08:07:44.906Z,-2.96
2022-12-18T08:11:37.739Z,-2.88
2022-12-18T08:15:30.537Z,-2.77
2022-12-18T08:19:23.164Z,-2.64
2022-12-18T08:23:15.901Z,-2.56
2022-12-18T08:31:22.163Z,-2.41
2022-12-18T08:35:18.715Z,-2.28
2022-12-18T08:39:11.283Z,-2.25
2022-12-18T08:43:22.898Z,-2.26
2022-12-18T08:47:15.865Z,-2.14
2022-12-18T08:51:10.758Z,-1.93
2022-12-18T08:55:03.432Z,-1.86
2022-12-18T08:58:56.253Z,-1.88
2022-12-18T09:02:49.053Z,-1.85
2022-12-18T09:06:42.474Z,-1.86
2022-12-18T09:10:40.185Z,-1.78
2022-12-18T09:14:35.858Z,-1.75
2022-12-18T09:18:28.532Z,-1.85
2022-12-18T09:22:21.952Z,-1.79
2022-12-18T09:26:14.564Z,-1.82
2022-12-18T09:30:08.307Z,-1.53
2022-12-18T09:34:00.965Z,-1.29
2022-12-18T09:37:54.506Z,-1.15
2022-12-18T09:41:54.828Z,-1.03
2022-12-18T09:45:52.875Z,-0.96
2022-12-18T09:49:52.318Z,-1.02
2022-12-18T09:53:52.072Z,-0.91
2022-12-18T09:57:52.540Z,-0.85
2022-12-18T10:01:47.419Z,-0.71
2022-12-18T10:06:28.271Z,-0.78
2022-12-18T10:10:48.367Z,-0.67
2022-12-18T10:14:56.931Z,-0.60
2022-12-18T10:19:08.077Z,-0.57
2022-12-18T10:23:11.245Z,-0.50
2022-12-18T10:27:17.739Z,-0.50
2022-12-18T10:31:18.324Z,-0.50
2022-12-18T10:35:21.892Z,-0.47
2022-12-18T10:39:27.370Z,-0.41
2022-12-18T10:43:24.697Z,-0.37
2022-12-18T10:47:20.174Z,-0.41
2022-12-18T10:51:25.244Z,-0.40
2022-12-18T10:55:19.193Z,-0.33
2022-12-18T10:59:18.033Z,-0.16
2022-12-18T11:03:39.016Z,-0.27
2022-12-18T11:07:50.430Z,-0.22
2022-12-18T11:11:50.288Z,-0.30
2022-12-18T11:15:43.463Z,-0.27
2022-12-18T11:19:38.843Z,-0.16
2022-12-18T11:23:31.422Z,-0.06
2022-12-18T11:27:24.336Z,-0.09
2022-12-18T11:31:29.497Z,0.09
2022-12-18T11:35:30.862Z,0.09
2022-12-18T11:39:47.612Z,0.04
2022-12-18T11:43:48.816Z,0.18
2022-12-18T11:47:53.592Z,0.12
2022-12-18T11:52:03.971Z,0.15
2022-12-18T11:56:18.667Z,0.26
2022-12-18T12:00:19.991Z,0.32
2022-12-18T12:04:34.463Z,0.26
2022-12-18T12:08:54.875Z,0.25
2022-12-18T12:13:24.994Z,0.28
2022-12-18T12:17:50.012Z,0.21
2022-12-18T12:21:47.479Z,0.29
2022-12-18T12:25:44.260Z,0.29
2022-12-18T12:29:57.573Z,0.24
2022-12-18T12:34:11.167Z,0.18
2022-12-18T12:38:21.770Z,0.21
2022-12-18T12:43:08.145Z,0.18
2022-12-18T12:47:15.713Z,0.12
2022-12-18T12:56:00.664Z,0.16
2022-12-18T13:00:18.785Z,0.14
2022-12-18T13:05:01.685Z,0.08
2022-12-18T13:09:06.975Z,0.05
2022-12-18T13:13:23.730Z,0.08
2022-12-18T13:17:46.827Z,0.08
2022-12-18T13:22:00.082Z,0.11
2022-12-18T13:26:28.895Z,0.11
2022-12-18T13:35:25.678Z,0.02
2022-12-18T13:44:14.253Z,0.05
2022-12-18T13:48:38.448Z,-0.07
2022-12-18T13:53:01.578Z,-0.06
2022-12-18T13:57:10.047Z,-0.10
2022-12-18T14:01:06.174Z,-0.14
2022-12-18T14:05:29.780Z,-0.23
2022-12-18T14:09:48.461Z,-0.34
2022-12-18T14:13:44.506Z,-0.37
2022-12-18T14:17:39.602Z,-0.38
2022-12-18T14:21:49.890Z,-0.44
2022-12-18T14:26:11.836Z,-0.54
2022-12-18T14:30:26.687Z,-0.60
2022-12-18T14:34:20.532Z,-0.64
2022-12-18T14:38:26.008Z,-0.71
2022-12-18T14:42:18.783Z,-0.82
2022-12-18T14:46:35.525Z,-0.93
2022-12-18T14:50:28.843Z,-0.99
2022-12-18T14:54:23.189Z,-1.06
2022-12-18T14:58:18.962Z,-1.03
2022-12-18T15:02:24.166Z,-1.09
2022-12-18T15:06:46.017Z,-1.25
2022-12-18T15:10:49.218Z,-1.32
2022-12-18T15:14:48.457Z,-1.39
2022-12-18T15:18:46.795Z,-1.44
2022-12-18T15:22:39.751Z,-1.53
2022-12-18T15:26:41.001Z,-1.53
2022-12-18T15:30:35.225Z,-1.54
2022-12-18T15:34:29.371Z,-1.54
2022-12-18T15:38:22.390Z,-1.70
2022-12-18T15:42:34.396Z,-1.75
2022-12-18T15:46:28.481Z,-1.79
2022-12-18T15:50:23.742Z,-1.85
2022-12-18T15:54:17.514Z,-1.85
2022-12-18T15:58:12.919Z,-1.88
2022-12-18T16:02:19.336Z,-1.95
2022-12-18T16:06:12.419Z,-2.03
2022-12-18T16:10:06.635Z,-2.10
2022-12-18T16:14:00.293Z,-2.07
2022-12-18T16:17:53.972Z,-2.10
2022-12-18T16:21:49.503Z,-2.13
2022-12-18T16:25:42.586Z,-2.07
2022-12-18T16:29:36.205Z,-2.13
2022-12-18T16:33:29.744Z,-2.22
2022-12-18T16:37:23.465Z,-2.25
2022-12-18T16:41:33.151Z,-2.16
2022-12-18T16:45:27.806Z,-2.09
2022-12-18T16:49:23.185Z,-2.01
2022-12-18T16:53:16.913Z,-2.07
2022-12-18T16:57:16.988Z,-2.14
2022-12-18T17:01:12.276Z,-2.22
2022-12-18T17:05:07.219Z,-2.33
2022-12-18T17:09:03.444Z,-2.34
2022-12-18T17:12:57.225Z,-2.41
2022-12-18T17:17:19.316Z,-2.37
2022-12-18T17:21:10.143Z,-2.56
2022-12-18T17:25:04.043Z,-2.65
2022-12-18T17:28:58.615Z,-2.68
2022-12-18T17:32:51.925Z,-2.77
2022-12-18T17:36:47.001Z,-2.69
2022-12-18T17:40:46.465Z,-2.72
2022-12-18T17:44:43.160Z,-2.79
2022-12-18T17:48:36.906Z,-2.74
2022-12-18T17:52:34.808Z,-2.69
2022-12-18T17:56:29.291Z,-2.82
2022-12-18T18:00:22.955Z,-2.74
2022-12-18T18:04:17.202Z,-2.86
2022-12-18T18:08:10.497Z,-2.47
2022-12-18T18:12:22.784Z,-2.37
2022-12-18T18:16:16.791Z,-2.69
2022-12-18T18:20:11.195Z,-2.57
2022-12-18T18:24:05.058Z,-2.75
2022-12-18T18:27:58.349Z,-2.61
2022-12-18T18:31:52.128Z,-2.67
2022-12-18T18:35:54.815Z,-2.61
2022-12-18T18:39:48.376Z,-2.79
2022-12-18T18:43:42.458Z,-2.95
2022-12-18T18:47:36.615Z,-3.07
2022-12-18T18:51:34.865Z,-3.12
2022-12-18T18:55:28.600Z,-3.19
2022-12-18T18:59:27.501Z,-3.06
2022-12-18T19:03:26.114Z,-2.92
2022-12-18T19:07:29.576Z,-2.74
2022-12-18T19:11:44.508Z,-2.75
2022-12-18T19:15:37.911Z,-2.68
2022-12-18T19:19:32.211Z,-2.82
2022-12-18T19:23:26.952Z,-2.69
2022-12-18T19:27:20.826Z,-2.68
2022-12-18T19:31:20.061Z,-2.78
2022-12-18T19:35:18.007Z,-2.51
2022-12-18T19:39:14.483Z,-2.53
2022-12-18T19:43:09.051Z,-2.56
2022-12-18T19:47:02.744Z,-2.68
2022-12-18T19:50:55.843Z,-2.89
2022-12-18T19:54:50.902Z,-2.96
2022-12-18T19:58:45.662Z,-3.15
2022-12-18T20:02:39.104Z,-3.12
2022-12-18T20:06:33.448Z,-3.05
2022-12-18T20:10:26.683Z,-3.19
2022-12-18T20:14:23.527Z,-2.96
2022-12-18T20:18:17.109Z,-3.19
2022-12-18T20:22:13.854Z,-3.19
2022-12-18T20:26:07.983Z,-3.07
2022-12-18T20:30:02.085Z,-3.33
2022-12-18T20:34:01.582Z,-3.47
2022-12-18T20:37:57.686Z,-3.54
2022-12-18T20:41:52.081Z,-3.43
2022-12-18T20:45:44.921Z,-3.19
2022-12-18T20:49:43.292Z,-3.19
2022-12-18T20:53:41.915Z,-3.26
2022-12-18T20:57:35.703Z,-3.32
2022-12-18T21:01:31.805Z,-3.48
2022-12-18T21:05:28.403Z,-3.42
2022-12-18T21:09:21.948Z,-3.62
2022-12-18T21:13:14.447Z,-3.72
2022-12-18T21:17:07.552Z,-3.57
2022-12-18T21:21:00.607Z,-3.43
2022-12-18T21:24:53.999Z,-3.12
2022-12-18T21:28:48.142Z,-3.20
2022-12-18T21:32:41.244Z,-3.32
2022-12-18T21:36:35.784Z,-3.30
2022-12-18T21:40:28.522Z,-3.27
2022-12-18T21:44:21.220Z,-3.40
2022-12-18T21:48:14.129Z,-3.37
2022-12-18T21:52:07.360Z,-3.37
2022-12-18T21:56:00.763Z,-3.57
2022-12-18T21:59:54.356Z,-3.65
2022-12-18T22:03:47.312Z,-3.75
2022-12-18T22:07:39.873Z,-3.70
2022-12-18T22:11:32.956Z,-3.51
2022-12-18T22:15:25.651Z,-3.60
2022-12-18T22:19:19.659Z,-3.71
2022-12-18T22:23:13.286Z,-3.64
2022-12-18T22:27:05.601Z,-3.47
2022-12-18T22:30:59.507Z,-3.54
2022-12-18T22:34:52.622Z,-3.62
2022-12-18T22:38:47.501Z,-3.55
2022-12-18T22:42:40.850Z,-3.54
2022-12-18T22:46:36.945Z,-3.55
2022-12-18T22:50:29.731Z,-3.70
2022-12-18T22:54:22.620Z,-3.64
2022-12-18T22:58:15.230Z,-3.48
2022-12-18T23:02:08.733Z,-3.51
2022-12-18T23:06:09.546Z,-3.60
2022-12-18T23:10:02.197Z,-3.50
2022-12-18T23:13:56.609Z,-3.34
2022-12-18T23:17:51.328Z,-3.42
2022-12-18T23:21:44.213Z,-3.50
2022-12-18T23:25:36.849Z,-3.40
2022-12-18T23:29:29.547Z,-3.40
2022-12-18T23:33:22.061Z,-3.30
2022-12-18T23:37:35.360Z,-3.53
2022-12-18T23:41:31.064Z,-3.40
2022-12-18T23:45:23.774Z,-3.23
2022-12-18T23:49:16.582Z,-3.23
2022-12-18T23:53:09.838Z,-3.23
2022-12-18T23:57:02.890Z,-3.27
